Time;durP1;ratioP1;P1;durP2;ratioP2;P2;SDS_P1;SDS_P2;PMS_P1;PMS_P2;Temp;Humidity;BMP_temperature;BMP_pressure;BME280_temperature;BME280_humidity;BME280_pressure;Samples;Min_cycle;Max_cycle;Signal;HPM_P1;HPM_P2
2020/12/03 00:00:33;;;;;;;24.42;15.90;;;3.20;95.60;;;;;;5042328;28;20184;-80
2020/12/03 00:03:04;;;;;;;30.05;18.08;;;2.60;95.30;;;;;;5044074;28;20996;-79
2020/12/03 00:05:32;;;;;;;39.50;17.65;;;2.60;95.60;;;;;;5043882;28;20214;-79
2020/12/03 00:08:03;;;;;;;34.83;19.85;;;2.80;95.40;;;;;;5045454;28;20196;-79
2020/12/03 00:10:31;;;;;;;28.88;19.33;;;2.50;95.10;;;;;;5044883;28;20216;-80
2020/12/03 00:13:08;;;;;;;31.10;18.60;;;2.60;95.30;;;;;;5040395;28;20262;-80
2020/12/03 00:15:36;;;;;;;30.48;17.67;;;2.70;95.00;;;;;;5047762;28;20192;-79
2020/12/03 00:18:05;;;;;;;33.33;18.38;;;2.70;95.00;;;;;;5040433;28;20196;-80
2020/12/03 00:20:33;;;;;;;31.13;18.70;;;2.60;95.40;;;;;;5028046;28;20205;-80
2020/12/03 00:23:05;;;;;;;37.17;20.65;;;2.60;95.60;;;;;;5028053;28;20197;-80
2020/12/03 00:25:33;;;;;;;35.78;18.90;;;2.70;95.50;;;;;;5032695;28;20201;-80
2020/12/03 00:28:00;;;;;;;31.10;18.85;;;2.70;95.10;;;;;;5032148;28;20204;-80
2020/12/03 00:30:28;;;;;;;33.97;20.65;;;2.70;94.70;;;;;;5047698;28;20311;-80
2020/12/03 00:33:01;;;;;;;33.22;23.00;;;2.70;94.60;;;;;;5033076;28;20661;-80
2020/12/03 00:35:35;;;;;;;36.05;20.25;;;2.60;94.70;;;;;;5046636;28;20203;-80
2020/12/03 00:38:04;;;;;;;36.60;19.95;;;2.50;95.20;;;;;;5041786;28;20557;-80
2020/12/03 00:40:35;;;;;;;37.65;19.23;;;2.50;95.90;;;;;;5043812;28;20200;-79
2020/12/03 00:43:05;;;;;;;34.22;17.10;;;2.50;96.10;;;;;;5039190;28;20733;-80
2020/12/03 00:45:33;;;;;;;36.08;18.08;;;2.40;95.90;;;;;;5047954;28;20203;-80
2020/12/03 00:48:05;;;;;;;35.88;19.58;;;2.10;96.20;;;;;;5032316;28;20224;-80
2020/12/03 00:50:32;;;;;;;26.95;17.35;;;1.90;96.60;;;;;;5047381;28;20273;-80
2020/12/03 00:53:02;;;;;;;29.33;19.35;;;1.80;97.20;;;;;;5028070;28;20204;-80
2020/12/03 00:55:30;;;;;;;29.58;18.15;;;1.60;97.50;;;;;;5043786;28;20208;-80
2020/12/03 00:57:59;;;;;;;29.08;17.10;;;1.40;98.30;;;;;;5044895;28;20200;-80
2020/12/03 01:00:28;;;;;;;35.95;18.83;;;1.60;99.20;;;;;;5033019;28;20204;-80
2020/12/03 01:03:03;;;;;;;31.58;17.20;;;1.70;99.30;;;;;;5048678;28;20674;-81
2020/12/03 01:05:34;;;;;;;23.00;16.10;;;2.00;99.20;;;;;;5044898;28;20204;-80
2020/12/03 01:08:06;;;;;;;34.88;17.75;;;1.90;98.40;;;;;;5047305;28;20561;-80
2020/12/03 01:10:37;;;;;;;35.85;20.02;;;1.90;99.00;;;;;;5036931;28;20325;-80
2020/12/03 01:13:11;;;;;;;31.73;18.60;;;2.10;99.40;;;;;;5043436;28;20199;-80
2020/12/03 01:15:38;;;;;;;26.05;15.77;;;1.90;98.60;;;;;;5032870;28;20259;-80
2020/12/03 01:18:06;;;;;;;30.95;17.55;;;1.60;98.50;;;;;;5051204;28;20196;-80
2020/12/03 01:20:35;;;;;;;39.30;19.33;;;1.70;99.10;;;;;;5051759;28;20198;-79
2020/12/03 01:23:04;;;;;;;37.10;19.48;;;1.70;99.10;;;;;;5051423;28;20212;-79
2020/12/03 01:25:35;;;;;;;34.30;19.05;;;1.60;99.20;;;;;;5051009;28;20294;-79
2020/12/03 01:28:04;;;;;;;33.60;18.15;;;1.50;99.50;;;;;;5047016;28;20250;-79
2020/12/03 01:30:32;;;;;;;36.72;19.15;;;1.40;99.50;;;;;;5031444;28;20220;-79
2020/12/03 01:32:58;;;;;;;31.80;18.52;;;1.60;99.90;;;;;;5037429;28;20295;-80
2020/12/03 01:35:25;;;;;;;28.75;19.42;;;1.80;99.90;;;;;;5051346;28;20196;-79
2020/12/03 01:37:52;;;;;;;31.48;18.23;;;1.80;99.90;;;;;;5038587;28;20285;-79
2020/12/03 01:40:22;;;;;;;36.95;20.63;;;1.90;99.90;;;;;;5034644;28;20196;-79
2020/12/03 01:42:50;;;;;;;38.70;22.38;;;1.90;99.50;;;;;;5041515;28;20196;-79
2020/12/03 01:45:52;;;;;;;36.70;19.95;;;1.90;99.40;;;;;;5049516;28;20188;-79
2020/12/03 01:48:41;;;;;;;34.38;18.73;;;1.80;98.70;;;;;;5047098;28;20292;-79
2020/12/03 01:51:15;;;;;;;28.80;17.60;;;1.90;99.20;;;;;;5030168;28;20304;-79
2020/12/03 01:53:42;;;;;;;32.08;19.73;;;2.20;99.10;;;;;;5031710;28;20189;-79
2020/12/03 01:56:34;;;;;;;35.38;18.25;;;2.30;98.70;;;;;;5031686;28;20192;-79
2020/12/03 01:59:02;;;;;;;36.10;18.98;;;2.50;98.80;;;;;;5032829;28;20681;-80
2020/12/03 02:01:29;;;;;;;32.22;19.10;;;2.60;97.80;;;;;;5037834;28;20672;-80
2020/12/03 02:03:57;;;;;;;33.20;19.50;;;2.60;97.20;;;;;;5045646;28;20319;-79
2020/12/03 02:06:27;;;;;;;37.88;18.48;;;2.60;96.90;;;;;;5047208;28;20243;-79
2020/12/03 02:08:54;;;;;;;35.78;19.63;;;2.60;96.70;;;;;;5047015;28;20202;-80
2020/12/03 02:11:35;;;;;;;36.95;18.65;;;2.70;96.60;;;;;;5070833;28;20318;-80
2020/12/03 02:14:06;;;;;;;28.67;18.38;;;2.70;96.50;;;;;;5039386;28;20208;-79
2020/12/03 02:16:37;;;;;;;31.02;19.30;;;2.70;96.40;;;;;;5038173;28;20205;-80
2020/12/03 02:19:16;;;;;;;33.88;20.35;;;2.80;96.20;;;;;;5042770;28;20556;-80
2020/12/03 02:21:45;;;;;;;36.15;20.42;;;2.70;96.00;;;;;;5029745;28;20219;-80
2020/12/03 02:24:12;;;;;;;35.83;21.25;;;2.70;96.00;;;;;;5044540;28;20212;-80
2020/12/03 02:26:48;;;;;;;40.53;21.30;;;2.70;96.20;;;;;;5050868;28;20223;-80
2020/12/03 02:29:19;;;;;;;35.75;21.08;;;2.80;96.00;;;;;;5035033;28;20530;-79
2020/12/03 02:31:48;;;;;;;33.78;20.67;;;2.70;95.90;;;;;;5038556;28;20227;-80
2020/12/03 02:34:16;;;;;;;37.88;21.55;;;2.70;95.80;;;;;;5038436;28;20594;-80
2020/12/03 02:36:49;;;;;;;34.63;21.00;;;2.80;95.90;;;;;;5029925;28;20205;-80
2020/12/03 02:39:17;;;;;;;32.53;22.00;;;2.60;95.70;;;;;;5030560;28;20204;-80
2020/12/03 02:41:48;;;;;;;35.53;23.35;;;2.60;95.80;;;;;;5039193;28;20204;-80
2020/12/03 02:44:17;;;;;;;33.03;21.55;;;2.70;96.00;;;;;;5042333;28;20663;-80
2020/12/03 02:46:45;;;;;;;37.90;22.75;;;2.70;95.80;;;;;;5042150;28;20553;-80
2020/12/03 02:49:13;;;;;;;34.45;20.73;;;2.60;95.70;;;;;;5043922;28;20539;-80
2020/12/03 02:51:41;;;;;;;38.85;21.52;;;2.60;95.90;;;;;;5038852;28;20727;-79
2020/12/03 02:54:14;;;;;;;36.85;22.55;;;2.50;96.30;;;;;;5044237;28;20216;-80
2020/12/03 02:56:42;;;;;;;34.70;20.45;;;2.50;96.20;;;;;;5044204;28;20631;-80
2020/12/03 02:59:09;;;;;;;38.67;21.88;;;2.40;96.00;;;;;;5039013;28;20668;-80
2020/12/03 03:01:37;;;;;;;42.05;23.95;;;2.30;96.10;;;;;;5029269;28;20692;-79
2020/12/03 03:04:04;;;;;;;42.92;23.00;;;2.40;96.30;;;;;;5037080;28;20196;-80
2020/12/03 03:06:31;;;;;;;39.72;23.65;;;2.60;96.30;;;;;;5041815;28;20189;-79
2020/12/03 03:08:58;;;;;;;43.00;24.52;;;2.50;96.30;;;;;;5034519;28;20603;-80
2020/12/03 03:11:25;;;;;;;40.67;22.42;;;2.40;96.00;;;;;;5043519;28;20668;-80
2020/12/03 03:13:51;;;;;;;34.40;22.33;;;2.50;96.00;;;;;;5042550;28;20283;-80
2020/12/03 03:16:18;;;;;;;41.08;24.63;;;2.50;95.80;;;;;;5029909;28;20831;-79
2020/12/03 03:18:44;;;;;;;45.65;24.80;;;2.40;95.70;;;;;;5040026;28;20211;-79
2020/12/03 03:21:11;;;;;;;46.42;23.17;;;2.30;95.70;;;;;;5048031;28;20207;-78
2020/12/03 03:23:38;;;;;;;36.55;24.10;;;2.30;95.90;;;;;;5032652;28;20189;-78
2020/12/03 03:26:04;;;;;;;40.70;22.73;;;2.20;96.50;;;;;;5035649;28;20716;-78
2020/12/03 03:28:31;;;;;;;42.38;24.20;;;2.30;96.40;;;;;;5037217;28;20197;-79
2020/12/03 03:30:58;;;;;;;40.47;22.70;;;2.40;96.20;;;;;;5029214;28;20220;-79
2020/12/03 03:33:24;;;;;;;42.25;23.65;;;2.40;96.10;;;;;;5039650;28;20580;-79
2020/12/03 03:35:51;;;;;;;37.13;23.95;;;2.40;96.00;;;;;;5029493;28;20255;-78
2020/12/03 03:38:19;;;;;;;37.28;23.70;;;2.40;95.80;;;;;;5032721;28;20262;-78
2020/12/03 03:40:45;;;;;;;48.35;24.27;;;2.50;95.70;;;;;;5048189;28;20703;-78
2020/12/03 03:43:12;;;;;;;36.65;24.35;;;2.40;95.50;;;;;;5047689;28;20195;-79
2020/12/03 03:45:39;;;;;;;39.92;22.65;;;2.50;95.50;;;;;;5031668;28;20530;-79
2020/12/03 03:48:06;;;;;;;42.42;23.35;;;2.40;95.30;;;;;;5045044;28;20247;-78
2020/12/03 03:50:33;;;;;;;38.58;23.08;;;2.30;95.60;;;;;;5029617;28;20311;-79
2020/12/03 03:52:59;;;;;;;31.00;21.02;;;2.30;95.70;;;;;;5044125;28;20287;-79
2020/12/03 03:55:26;;;;;;;37.45;21.27;;;2.40;95.70;;;;;;5049607;28;20211;-79
2020/12/03 03:57:52;;;;;;;41.30;22.15;;;2.40;95.40;;;;;;5049744;28;20237;-79
2020/12/03 04:00:19;;;;;;;38.97;24.33;;;2.40;95.30;;;;;;5034546;28;20200;-78
2020/12/03 04:02:47;;;;;;;43.03;22.98;;;2.40;95.20;;;;;;5039601;28;20661;-78
2020/12/03 04:05:15;;;;;;;41.05;22.75;;;2.30;95.10;;;;;;5031296;28;20281;-78
2020/12/03 04:07:42;;;;;;;34.85;19.95;;;2.40;95.50;;;;;;5039221;28;20196;-78
2020/12/03 04:10:09;;;;;;;38.17;23.65;;;2.50;95.40;;;;;;5035238;28;20192;-79
2020/12/03 04:12:38;;;;;;;43.30;23.60;;;2.40;95.40;;;;;;5048676;28;20730;-79
2020/12/03 04:15:05;;;;;;;34.53;22.45;;;2.40;95.70;;;;;;5033340;28;20201;-78
2020/12/03 04:17:36;;;;;;;38.85;23.63;;;2.50;95.50;;;;;;5036622;28;20653;-78
2020/12/03 04:20:06;;;;;;;38.75;23.15;;;2.50;95.50;;;;;;5049657;28;20196;-78
2020/12/03 04:22:33;;;;;;;34.65;20.50;;;2.50;95.30;;;;;;5047511;28;20718;-78
2020/12/03 04:24:59;;;;;;;35.42;22.33;;;2.60;95.50;;;;;;5035134;28;20266;-78
2020/12/03 04:27:26;;;;;;;30.80;22.25;;;2.60;95.70;;;;;;5030770;28;20196;-79
2020/12/03 04:29:52;;;;;;;36.70;23.30;;;2.50;95.40;;;;;;5047272;28;20232;-78
2020/12/03 04:32:19;;;;;;;36.30;21.23;;;2.60;95.50;;;;;;5028914;28;20748;-78
2020/12/03 04:34:45;;;;;;;31.77;20.20;;;2.60;95.50;;;;;;5041591;28;20193;-78
2020/12/03 04:37:12;;;;;;;39.80;20.95;;;2.60;95.30;;;;;;5029468;28;20201;-78
2020/12/03 04:39:39;;;;;;;36.72;22.27;;;2.60;95.30;;;;;;5030217;28;20247;-78
2020/12/03 04:42:19;;;;;;;41.42;22.42;;;2.60;95.30;;;;;;5026929;28;20286;-78
2020/12/03 04:44:47;;;;;;;32.35;20.77;;;2.50;95.40;;;;;;5043774;28;20231;-78
2020/12/03 04:47:33;;;;;;;31.25;20.30;;;2.60;95.70;;;;;;5043382;28;20193;-78
2020/12/03 04:50:10;;;;;;;36.58;22.00;;;2.60;95.60;;;;;;5045705;28;20223;-78
2020/12/03 04:53:13;;;;;;;26.63;17.73;;;2.50;95.60;;;;;;5027692;28;20255;-78
2020/12/03 04:55:57;;;;;;;35.20;19.55;;;2.50;96.00;;;;;;5029067;28;20236;-78
2020/12/03 04:58:42;;;;;;;26.73;17.40;;;2.40;95.70;;;;;;5034583;28;20645;-79
2020/12/03 05:01:27;;;;;;;32.25;20.52;;;2.40;95.80;;;;;;5028026;28;20204;-78
2020/12/03 05:04:06;;;;;;;35.38;16.95;;;2.20;96.00;;;;;;5036082;28;20700;-78
2020/12/03 05:06:46;;;;;;;32.80;17.95;;;2.20;96.50;;;;;;5028850;28;20200;-78
2020/12/03 05:09:21;;;;;;;27.35;17.10;;;2.50;96.70;;;;;;5029147;28;20546;-79
2020/12/03 05:11:55;;;;;;;29.80;19.27;;;2.50;96.40;;;;;;5028245;28;20987;-78
2020/12/03 05:14:44;;;;;;;31.25;20.17;;;2.40;96.30;;;;;;5038410;28;20717;-78
2020/12/03 05:17:47;;;;;;;24.60;16.25;;;2.40;96.30;;;;;;5031394;28;20689;-78
2020/12/03 05:20:43;;;;;;;29.50;17.65;;;2.20;95.80;;;;;;5047134;28;20540;-78
2020/12/03 05:23:16;;;;;;;31.23;18.33;;;2.30;96.50;;;;;;5036282;28;20636;-78
2020/12/03 05:25:43;;;;;;;30.02;16.85;;;2.30;96.50;;;;;;5045374;28;20247;-78
2020/12/03 05:28:36;;;;;;;25.92;17.08;;;2.30;96.80;;;;;;5043858;28;20456;-78
2020/12/03 05:31:13;;;;;;;24.80;16.02;;;2.30;96.60;;;;;;5046201;28;20621;-78
2020/12/03 05:33:40;;;;;;;24.45;16.77;;;2.20;96.30;;;;;;5037917;28;20924;-79
2020/12/03 05:36:18;;;;;;;25.48;16.10;;;2.30;96.90;;;;;;5048693;28;20616;-79
2020/12/03 05:38:45;;;;;;;28.35;20.42;;;2.40;96.90;;;;;;5039810;28;20742;-78
2020/12/03 05:41:16;;;;;;;24.27;17.10;;;2.50;96.60;;;;;;5026464;28;20205;-77
2020/12/03 05:43:42;;;;;;;24.17;17.15;;;2.60;96.20;;;;;;5038985;28;20507;-77
2020/12/03 05:46:10;;;;;;;27.00;15.93;;;2.70;96.30;;;;;;5048376;28;20673;-78
2020/12/03 05:48:37;;;;;;;22.88;15.35;;;2.70;95.90;;;;;;5035184;28;20250;-78
2020/12/03 05:51:16;;;;;;;22.35;16.20;;;2.70;96.00;;;;;;5051529;28;20281;-78
2020/12/03 05:53:52;;;;;;;20.63;14.13;;;2.50;95.60;;;;;;5047893;28;20204;-77
2020/12/03 05:56:23;;;;;;;24.83;16.15;;;2.60;96.20;;;;;;5032313;28;20204;-78
2020/12/03 05:58:49;;;;;;;22.63;15.50;;;2.70;96.20;;;;;;5046703;28;20258;-78
2020/12/03 06:01:18;;;;;;;19.83;13.95;;;2.80;96.00;;;;;;5050995;28;20746;-78
2020/12/03 06:03:59;;;;;;;20.48;13.93;;;2.90;95.80;;;;;;5051366;28;20192;-79
2020/12/03 06:06:52;;;;;;;21.50;16.45;;;2.90;95.50;;;;;;5051410;28;20283;-78
2020/12/03 06:09:52;;;;;;;23.10;15.35;;;2.70;94.90;;;;;;5031585;28;20208;-79
2020/12/03 06:12:40;;;;;;;22.02;15.82;;;2.80;95.20;;;;;;5007115;28;20228;-79
2020/12/03 06:15:19;;;;;;;22.08;14.27;;;2.90;95.30;;;;;;5039079;28;20196;-79
2020/12/03 06:18:33;;;;;;;20.15;14.60;;;2.80;95.40;;;;;;5034027;28;20197;-79
2020/12/03 06:21:40;;;;;;;22.60;15.95;;;2.90;95.40;;;;;;5001490;28;21143;-79
2020/12/03 06:24:43;;;;;;;22.20;14.05;;;2.80;95.60;;;;;;4929372;29;20271;-80
2020/12/03 06:27:42;;;;;;;22.05;14.35;;;2.70;95.40;;;;;;4947369;28;20706;-79
2020/12/03 06:30:21;;;;;;;16.50;13.90;;;2.80;95.70;;;;;;5023538;28;20212;-79
2020/12/03 06:33:17;;;;;;;23.85;18.08;;;2.80;95.70;;;;;;5037218;28;21291;-79
2020/12/03 06:35:49;;;;;;;20.92;14.77;;;3.00;95.70;;;;;;5031292;28;20201;-79
2020/12/03 06:38:23;;;;;;;22.95;15.73;;;2.90;95.30;;;;;;5030449;28;20197;-79
2020/12/03 06:40:57;;;;;;;19.80;14.65;;;3.00;95.40;;;;;;5049859;28;20199;-79
2020/12/03 06:43:30;;;;;;;20.05;14.10;;;2.80;95.40;;;;;;5042770;28;20307;-79
2020/12/03 06:46:36;;;;;;;20.05;15.00;;;2.80;95.70;;;;;;5031460;28;20235;-79
2020/12/03 06:49:35;;;;;;;22.65;14.57;;;3.00;95.70;;;;;;5032589;28;20274;-79
2020/12/03 06:52:44;;;;;;;19.30;14.52;;;3.00;95.20;;;;;;5030062;28;20233;-79
2020/12/03 06:55:23;;;;;;;19.98;14.93;;;3.10;95.00;;;;;;5020425;28;20274;-79
2020/12/03 06:58:19;;;;;;;20.80;15.10;;;3.10;95.20;;;;;;5030349;28;20200;-79
2020/12/03 07:01:25;;;;;;;21.70;14.23;;;3.00;94.90;;;;;;5048710;28;20230;-79
2020/12/03 07:04:28;;;;;;;19.17;15.05;;;3.00;95.10;;;;;;5050200;28;20203;-79
2020/12/03 07:07:17;;;;;;;23.08;13.90;;;2.80;94.90;;;;;;5038315;28;20779;-79
2020/12/03 07:10:10;;;;;;;18.17;13.27;;;2.80;95.60;;;;;;5045601;28;20245;-79
2020/12/03 07:12:52;;;;;;;18.40;12.98;;;2.80;95.30;;;;;;5029994;28;20236;-78
2020/12/03 07:15:44;;;;;;;21.52;15.25;;;3.00;95.40;;;;;;5048233;28;20977;-79
2020/12/03 07:18:40;;;;;;;20.15;15.02;;;3.10;95.20;;;;;;5044091;28;20193;-79
2020/12/03 07:21:40;;;;;;;18.95;14.38;;;3.00;95.00;;;;;;5034750;28;20266;-78
2020/12/03 07:24:11;;;;;;;21.55;14.68;;;3.10;94.70;;;;;;5043730;28;20216;-79
2020/12/03 07:27:04;;;;;;;22.67;14.20;;;3.10;94.40;;;;;;5032120;28;20200;-79
2020/12/03 07:29:56;;;;;;;18.30;12.93;;;3.10;94.50;;;;;;5035098;28;20197;-79
2020/12/03 07:32:40;;;;;;;17.75;13.05;;;3.00;94.70;;;;;;5048915;28;20278;-79
2020/12/03 07:35:23;;;;;;;19.85;13.45;;;3.10;94.80;;;;;;5050171;28;20677;-79
2020/12/03 07:37:57;;;;;;;19.48;14.15;;;2.90;94.70;;;;;;5050074;28;20192;-80
2020/12/03 07:40:25;;;;;;;17.98;12.63;;;2.80;94.70;;;;;;5030290;28;20278;-79
2020/12/03 07:43:01;;;;;;;16.40;12.25;;;3.10;94.70;;;;;;5045557;28;20699;-79
2020/12/03 07:45:43;;;;;;;14.32;10.80;;;2.70;94.50;;;;;;5041202;28;20567;-79
2020/12/03 07:48:20;;;;;;;18.02;12.90;;;2.70;94.20;;;;;;5048269;28;20220;-79
2020/12/03 07:51:07;;;;;;;16.90;11.77;;;2.80;94.50;;;;;;5049095;28;20203;-79
2020/12/03 07:53:35;;;;;;;13.48;10.55;;;2.90;94.10;;;;;;5038970;28;20213;-79
2020/12/03 07:56:31;;;;;;;16.55;11.20;;;3.20;94.20;;;;;;5048090;28;20192;-79
2020/12/03 07:59:34;;;;;;;15.40;11.02;;;3.20;93.90;;;;;;5037399;28;20283;-79
2020/12/03 08:02:02;;;;;;;15.68;10.80;;;3.30;93.70;;;;;;5029480;28;21016;-79
2020/12/03 08:04:36;;;;;;;14.45;10.27;;;3.30;93.20;;;;;;5042423;28;20249;-79
2020/12/03 08:07:24;;;;;;;9.35;8.35;;;3.20;92.10;;;;;;5049737;28;20192;-79
2020/12/03 08:09:51;;;;;;;13.75;8.48;;;3.10;91.20;;;;;;5047645;28;20227;-79
2020/12/03 08:12:21;;;;;;;12.50;8.60;;;3.20;91.60;;;;;;5040328;28;20225;-79
2020/12/03 08:14:49;;;;;;;11.70;8.48;;;3.40;91.90;;;;;;5037354;28;20184;-79
2020/12/03 08:17:46;;;;;;;12.70;9.52;;;3.50;92.00;;;;;;5031281;28;20197;-79
2020/12/03 08:20:17;;;;;;;12.30;9.10;;;3.30;91.60;;;;;;5041592;28;20196;-79
2020/12/03 08:22:45;;;;;;;15.85;9.60;;;3.30;92.10;;;;;;5047094;28;21139;-79
2020/12/03 08:25:15;;;;;;;13.40;9.00;;;3.40;92.20;;;;;;5033532;28;20627;-80
2020/12/03 08:27:42;;;;;;;14.00;11.18;;;3.50;92.00;;;;;;5030438;28;20205;-79
2020/12/03 08:30:34;;;;;;;13.20;10.55;;;3.60;92.00;;;;;;5049207;28;20192;-79
2020/12/03 08:33:05;;;;;;;14.57;10.77;;;3.70;91.40;;;;;;5038951;28;20618;-79
2020/12/03 08:35:32;;;;;;;16.38;10.63;;;3.70;91.60;;;;;;5043647;28;20365;-80
2020/12/03 08:38:01;;;;;;;15.70;10.57;;;3.60;91.80;;;;;;5030433;28;20227;-79
2020/12/03 08:40:33;;;;;;;15.07;11.00;;;3.60;91.90;;;;;;5045993;28;20200;-79
2020/12/03 08:43:08;;;;;;;12.75;10.40;;;4.20;92.10;;;;;;5035254;28;20277;-79
2020/12/03 08:45:45;;;;;;;14.30;10.23;;;3.70;91.80;;;;;;5032975;28;20195;-79
2020/12/03 08:48:16;;;;;;;15.45;11.07;;;3.80;91.80;;;;;;5048241;28;20203;-80
2020/12/03 08:50:42;;;;;;;16.17;11.35;;;3.70;91.40;;;;;;5046554;28;20196;-79
2020/12/03 08:53:11;;;;;;;16.15;11.98;;;3.80;91.60;;;;;;5041890;28;20252;-79
2020/12/03 08:55:39;;;;;;;16.13;12.10;;;3.50;91.10;;;;;;5037365;28;20728;-80
2020/12/03 08:58:08;;;;;;;15.48;11.07;;;3.60;91.60;;;;;;5047323;28;20195;-80
2020/12/03 09:00:40;;;;;;;15.65;12.10;;;3.60;91.80;;;;;;5041176;28;20649;-80
2020/12/03 09:03:11;;;;;;;17.33;12.13;;;3.70;91.90;;;;;;5046060;28;20198;-80
2020/12/03 09:05:41;;;;;;;14.98;11.60;;;3.60;91.80;;;;;;5046980;28;20246;-78
2020/12/03 09:08:10;;;;;;;15.52;11.88;;;3.70;91.80;;;;;;5028927;28;20708;-78
2020/12/03 09:10:36;;;;;;;19.00;13.18;;;3.90;91.90;;;;;;5032599;28;20188;-78
2020/12/03 09:13:03;;;;;;;16.02;13.02;;;3.90;91.80;;;;;;5044996;28;20594;-78
2020/12/03 09:15:30;;;;;;;18.20;12.50;;;4.80;91.90;;;;;;5038046;28;20230;-78
2020/12/03 09:18:01;;;;;;;17.23;12.40;;;3.60;91.80;;;;;;5031896;28;20185;-78
2020/12/03 09:20:27;;;;;;;18.48;12.60;;;3.70;92.10;;;;;;5035456;28;20200;-78
2020/12/03 09:22:54;;;;;;;17.25;12.10;;;3.80;92.00;;;;;;5041050;28;20195;-78
2020/12/03 09:25:21;;;;;;;19.17;13.57;;;3.80;91.60;;;;;;5050492;28;20188;-78
2020/12/03 09:27:49;;;;;;;17.95;13.75;;;3.90;91.90;;;;;;5044651;28;20258;-78
2020/12/03 09:30:19;;;;;;;20.13;14.95;;;3.80;91.70;;;;;;5032347;28;20212;-78
2020/12/03 09:32:49;;;;;;;15.60;12.63;;;4.00;91.60;;;;;;5048925;28;20230;-78
2020/12/03 09:35:17;;;;;;;17.23;12.02;;;4.00;91.30;;;;;;5040732;28;20574;-78
2020/12/03 09:37:43;;;;;;;14.48;12.23;;;4.00;91.20;;;;;;5035261;28;20203;-78
2020/12/03 09:40:11;;;;;;;15.30;11.98;;;4.10;91.20;;;;;;5050495;28;20204;-78
2020/12/03 09:42:45;;;;;;;17.45;11.95;;;4.20;91.00;;;;;;5050020;28;20905;-78
2020/12/03 09:45:20;;;;;;;14.82;11.55;;;4.30;91.10;;;;;;5051284;28;20195;-78
2020/12/03 09:47:47;;;;;;;17.27;12.98;;;4.40;90.60;;;;;;5039897;28;20278;-78
2020/12/03 09:50:14;;;;;;;16.45;12.65;;;4.40;90.80;;;;;;5046978;28;20287;-78
2020/12/03 09:52:43;;;;;;;16.90;12.38;;;4.20;90.40;;;;;;5031217;28;20216;-78
2020/12/03 09:55:13;;;;;;;17.45;11.80;;;4.10;90.30;;;;;;5043472;28;20677;-78
2020/12/03 09:57:40;;;;;;;14.65;12.23;;;4.00;90.50;;;;;;5051974;28;20208;-78
2020/12/03 10:00:08;;;;;;;17.95;14.13;;;4.20;91.20;;;;;;5051486;28;20196;-79
2020/12/03 10:03:12;;;;;;;14.45;12.63;;;4.30;90.70;;;;;;5050932;28;20254;-78
2020/12/03 10:05:54;;;;;;;16.38;12.35;;;4.20;90.10;;;;;;5036323;28;20203;-79
2020/12/03 10:08:55;;;;;;;16.02;12.60;;;4.40;90.50;;;;;;5033029;28;20242;-78
2020/12/03 10:11:58;;;;;;;15.38;11.68;;;4.30;89.90;;;;;;5029411;28;20331;-78
2020/12/03 10:14:48;;;;;;;16.30;12.85;;;4.30;90.30;;;;;;5031660;28;20200;-79
2020/12/03 10:17:17;;;;;;;15.85;12.00;;;4.30;89.40;;;;;;5032652;28;20232;-78
2020/12/03 10:19:46;;;;;;;13.13;11.05;;;4.30;89.80;;;;;;5031225;28;20203;-79
2020/12/03 10:22:25;;;;;;;17.00;12.02;;;4.60;90.20;;;;;;5035890;28;20192;-78
2020/12/03 10:24:55;;;;;;;15.82;12.55;;;4.70;89.70;;;;;;5037689;28;20266;-78
2020/12/03 10:27:31;;;;;;;16.35;11.23;;;4.60;88.20;;;;;;5045883;28;20204;-78
2020/12/03 10:30:00;;;;;;;13.25;10.90;;;4.70;88.60;;;;;;5031398;28;20211;-79
2020/12/03 10:32:28;;;;;;;15.68;12.43;;;4.60;87.50;;;;;;5030710;28;20271;-78
2020/12/03 10:34:55;;;;;;;14.48;11.00;;;4.50;86.70;;;;;;5031206;28;20201;-78
2020/12/03 10:37:33;;;;;;;11.18;9.80;;;4.70;86.70;;;;;;5038251;28;20254;-79
2020/12/03 10:40:03;;;;;;;15.52;11.65;;;4.50;86.20;;;;;;5050890;28;20265;-78
2020/12/03 10:42:37;;;;;;;14.02;10.90;;;4.50;86.10;;;;;;5047892;28;20236;-78
2020/12/03 10:45:07;;;;;;;11.75;10.50;;;4.60;85.90;;;;;;5050634;28;20253;-78
2020/12/03 10:47:45;;;;;;;11.25;9.82;;;5.00;86.40;;;;;;5051086;28;20200;-79
2020/12/03 10:50:17;;;;;;;12.00;9.73;;;5.50;87.30;;;;;;5046322;28;20568;-78
2020/12/03 10:52:44;;;;;;;13.60;10.77;;;4.60;83.80;;;;;;5030200;28;20232;-79
2020/12/03 10:55:16;;;;;;;14.05;11.85;;;4.70;85.70;;;;;;5031298;28;20196;-78
2020/12/03 10:57:52;;;;;;;13.18;9.70;;;4.90;85.50;;;;;;5031059;28;20209;-78
2020/12/03 11:00:21;;;;;;;16.30;9.10;;;4.70;83.70;;;;;;5043950;28;20223;-78
2020/12/03 11:02:49;;;;;;;10.40;9.00;;;4.50;82.60;;;;;;5049817;28;20250;-78
2020/12/03 11:05:16;;;;;;;11.15;8.95;;;4.40;83.30;;;;;;5047715;28;20224;-78
2020/12/03 11:07:52;;;;;;;13.40;10.13;;;4.60;84.90;;;;;;5030059;28;20223;-78
2020/12/03 11:10:20;;;;;;;13.15;10.20;;;4.00;82.00;;;;;;5036843;28;20207;-78
2020/12/03 11:12:50;;;;;;;15.05;9.68;;;4.30;85.00;;;;;;5033745;28;20229;-78
2020/12/03 11:15:20;;;;;;;12.27;9.15;;;4.50;85.50;;;;;;5030779;28;20610;-78
2020/12/03 11:18:07;;;;;;;18.48;11.82;;;4.40;83.90;;;;;;5031319;28;20199;-78
2020/12/03 11:20:35;;;;;;;12.90;9.70;;;4.40;84.60;;;;;;5032383;28;20708;-78
2020/12/03 11:23:07;;;;;;;13.30;10.40;;;4.40;84.20;;;;;;5033686;28;20298;-78
2020/12/03 11:25:35;;;;;;;12.18;8.68;;;4.80;84.90;;;;;;5029098;28;20301;-78
2020/12/03 11:28:29;;;;;;;12.75;9.27;;;5.00;85.00;;;;;;5029602;28;20206;-78
2020/12/03 11:31:02;;;;;;;11.48;8.20;;;4.50;84.20;;;;;;5029389;28;20197;-78
2020/12/03 11:33:33;;;;;;;12.15;9.02;;;4.60;84.90;;;;;;5028891;28;20240;-78
2020/12/03 11:36:09;;;;;;;12.52;8.65;;;4.70;83.00;;;;;;5029276;28;20208;-78
2020/12/03 11:38:39;;;;;;;10.15;8.45;;;4.70;83.20;;;;;;5029313;28;20223;-79
2020/12/03 11:41:10;;;;;;;10.60;8.43;;;4.80;82.50;;;;;;5028000;28;20247;-78
2020/12/03 11:47:16;;;;;;;12.50;8.82;;;4.90;83.20;;;;;;5016248;28;20290;-78
2020/12/03 11:49:43;;;;;;;9.13;8.05;;;5.10;82.30;;;;;;5044499;28;20203;-78
2020/12/03 11:52:11;;;;;;;8.77;7.82;;;5.10;80.10;;;;;;5049155;28;20242;-78
2020/12/03 11:54:38;;;;;;;9.07;7.75;;;4.90;80.80;;;;;;5049502;28;20596;-78
2020/12/03 11:57:05;;;;;;;12.60;8.32;;;5.50;82.00;;;;;;5049261;28;20492;-78
2020/12/03 11:59:33;;;;;;;7.63;6.43;;;5.10;81.10;;;;;;5049682;28;20211;-78
2020/12/03 12:02:02;;;;;;;9.73;7.53;;;5.10;80.20;;;;;;5048711;28;20200;-78
2020/12/03 12:04:36;;;;;;;8.98;7.53;;;4.90;80.30;;;;;;5049657;28;20203;-78
2020/12/03 12:07:15;;;;;;;9.80;7.20;;;4.50;80.20;;;;;;5045564;28;20186;-78
2020/12/03 12:09:51;;;;;;;9.65;7.72;;;4.30;80.30;;;;;;5042710;28;20319;-78
2020/12/03 12:12:20;;;;;;;10.57;8.85;;;4.40;82.40;;;;;;5034601;28;20700;-78
2020/12/03 12:14:47;;;;;;;11.43;8.35;;;4.60;82.20;;;;;;5040100;28;20666;-78
2020/12/03 12:17:17;;;;;;;10.75;7.47;;;4.80;81.50;;;;;;5039359;28;20209;-78
2020/12/03 12:19:44;;;;;;;9.68;7.25;;;5.00;82.00;;;;;;5035398;28;20197;-78
2020/12/03 12:22:13;;;;;;;9.55;8.60;;;5.00;81.80;;;;;;5042779;28;20701;-78
2020/12/03 12:24:42;;;;;;;8.63;6.93;;;5.20;81.20;;;;;;5047181;28;20287;-79
2020/12/03 12:27:08;;;;;;;11.23;7.82;;;5.00;81.00;;;;;;5040615;28;20189;-78
2020/12/03 12:29:35;;;;;;;11.80;8.45;;;5.00;81.70;;;;;;5046452;28;20210;-79
2020/12/03 12:32:03;;;;;;;11.15;7.65;;;4.80;80.60;;;;;;5033796;28;20217;-78
2020/12/03 12:34:30;;;;;;;10.45;8.45;;;4.90;81.40;;;;;;5039232;28;20232;-79
2020/12/03 12:36:56;;;;;;;7.82;6.90;;;5.00;81.20;;;;;;5047907;28;20191;-79
2020/12/03 12:39:23;;;;;;;8.10;6.88;;;4.80;80.90;;;;;;5036987;28;20207;-79
2020/12/03 12:41:59;;;;;;;9.07;7.10;;;4.80;81.90;;;;;;5044897;28;20225;-79
2020/12/03 12:44:26;;;;;;;8.43;6.68;;;4.80;81.30;;;;;;5033331;28;20531;-79
2020/12/03 12:46:54;;;;;;;10.27;7.13;;;4.70;81.50;;;;;;5039413;28;20200;-79
2020/12/03 12:49:21;;;;;;;9.65;7.05;;;4.60;82.00;;;;;;5040605;28;20595;-79
2020/12/03 12:51:48;;;;;;;10.45;8.20;;;4.60;82.80;;;;;;5028580;28;20216;-78
2020/12/03 12:54:14;;;;;;;11.13;7.72;;;4.90;82.50;;;;;;5040858;28;20196;-79
2020/12/03 12:56:42;;;;;;;10.52;8.90;;;5.00;82.20;;;;;;5048930;28;20656;-79
2020/12/03 12:59:09;;;;;;;9.43;6.55;;;5.10;82.00;;;;;;5042912;28;20200;-79
2020/12/03 13:01:35;;;;;;;8.85;7.43;;;5.00;82.00;;;;;;5032919;28;20193;-79
2020/12/03 13:04:02;;;;;;;8.85;6.68;;;4.90;81.60;;;;;;5036950;28;20602;-79
2020/12/03 13:06:29;;;;;;;9.82;7.55;;;4.90;81.50;;;;;;5032665;28;20201;-79
2020/12/03 13:08:55;;;;;;;9.25;7.45;;;4.80;81.80;;;;;;5046058;28;20254;-79
2020/12/03 13:11:22;;;;;;;10.38;7.50;;;4.80;82.40;;;;;;5052652;28;20195;-79
2020/12/03 13:13:48;;;;;;;10.50;8.13;;;4.70;82.20;;;;;;5048625;28;20649;-79
2020/12/03 13:16:14;;;;;;;8.35;7.50;;;4.60;82.10;;;;;;5052918;28;20203;-79